sensor_id;sensor_type;location;lat;lon;timestamp;pressure;altitude;pressure_sealevel;temperature;humidity
17309;BME280;8772;42.804;23.426;2022-10-24T00:00:54;95372.75;;;10.09;100.00
17309;BME280;8772;42.804;23.426;2022-10-24T00:03:23;95371.22;;;10.08;100.00
17309;BME280;8772;42.804;23.426;2022-10-24T00:05:51;95372.75;;;10.06;100.00
17309;BME280;8772;42.804;23.426;2022-10-24T00:08:18;95366.28;;;10.03;100.00
17309;BME280;8772;42.804;23.426;2022-10-24T00:10:46;95367.06;;;9.86;100.00
17309;BME280;8772;42.804;23.426;2022-10-24T00:13:15;95362.91;;;9.71;100.00
17309;BME280;8772;42.804;23.426;2022-10-24T00:15:43;95368.69;;;9.52;100.00
17309;BME280;8772;42.804;23.426;2022-10-24T00:18:11;95364.06;;;9.63;100.00
17309;BME280;8772;42.804;23.426;2022-10-24T00:20:38;95362.19;;;9.67;100.00
17309;BME280;8772;42.804;23.426;2022-10-24T00:23:06;95354.53;;;9.62;100.00
17309;BME280;8772;42.804;23.426;2022-10-24T00:25:33;95356.06;;;9.63;100.00
17309;BME280;8772;42.804;23.426;2022-10-24T00:28:00;95357.59;;;9.64;100.00
17309;BME280;8772;42.804;23.426;2022-10-24T00:30:28;95354.16;;;9.64;100.00
17309;BME280;8772;42.804;23.426;2022-10-24T00:32:54;95355.72;;;9.54;100.00
17309;BME280;8772;42.804;23.426;2022-10-24T00:35:21;95350.75;;;9.49;100.00
17309;BME280;8772;42.804;23.426;2022-10-24T00:37:48;95350.38;;;9.47;100.00
17309;BME280;8772;42.804;23.426;2022-10-24T00:40:18;95344.69;;;9.45;100.00
17309;BME280;8772;42.804;23.426;2022-10-24T00:42:46;95354.97;;;9.40;100.00
17309;BME280;8772;42.804;23.426;2022-10-24T00:45:41;95355.38;;;9.35;100.00
17309;BME280;8772;42.804;23.426;2022-10-24T00:48:14;95345.47;;;9.18;100.00
17309;BME280;8772;42.804;23.426;2022-10-24T00:50:42;95341.66;;;9.15;100.00
17309;BME280;8772;42.804;23.426;2022-10-24T00:53:10;95349.28;;;9.17;100.00
17309;BME280;8772;42.804;23.426;2022-10-24T00:55:39;95340.91;;;9.18;100.00
17309;BME280;8772;42.804;23.426;2022-10-24T00:58:07;95346.63;;;9.13;100.00
17309;BME280;8772;42.804;23.426;2022-10-24T01:00:34;95343.94;;;9.13;100.00
17309;BME280;8772;42.804;23.426;2022-10-24T01:03:01;95350.44;;;9.19;100.00
17309;BME280;8772;42.804;23.426;2022-10-24T01:08:56;95341.69;;;9.01;100.00
17309;BME280;8772;42.804;23.426;2022-10-24T01:11:42;95345.50;;;9.07;100.00
17309;BME280;8772;42.804;23.426;2022-10-24T01:14:20;95342.06;;;9.00;100.00
17309;BME280;8772;42.804;23.426;2022-10-24T01:16:55;95350.44;;;8.98;100.00
17309;BME280;8772;42.804;23.426;2022-10-24T01:22:35;95341.69;;;9.08;100.00
17309;BME280;8772;42.804;23.426;2022-10-24T01:25:11;95341.31;;;9.06;100.00
17309;BME280;8772;42.804;23.426;2022-10-24T01:27:51;95347.78;;;8.95;100.00
17309;BME280;8772;42.804;23.426;2022-10-24T01:30:23;95341.69;;;8.94;100.00
17309;BME280;8772;42.804;23.426;2022-10-24T01:32:55;95348.16;;;8.97;100.00
17309;BME280;8772;42.804;23.426;2022-10-24T01:35:32;95341.31;;;8.99;100.00
17309;BME280;8772;42.804;23.426;2022-10-24T01:38:06;95347.41;;;9.03;100.00
17309;BME280;8772;42.804;23.426;2022-10-24T01:40:43;95348.53;;;9.02;100.00
17309;BME280;8772;42.804;23.426;2022-10-24T01:43:15;95335.59;;;8.94;100.00
17309;BME280;8772;42.804;23.426;2022-10-24T01:45:48;95343.97;;;8.92;100.00
17309;BME280;8772;42.804;23.426;2022-10-24T01:48:19;95345.50;;;8.93;100.00
17309;BME280;8772;42.804;23.426;2022-10-24T01:50:49;95340.91;;;8.90;100.00
17309;BME280;8772;42.804;23.426;2022-10-24T01:53:19;95337.13;;;8.91;100.00
17309;BME280;8772;42.804;23.426;2022-10-24T01:55:47;95353.91;;;8.85;100.00
17309;BME280;8772;42.804;23.426;2022-10-24T01:58:15;95350.06;;;8.82;100.00
17309;BME280;8772;42.804;23.426;2022-10-24T02:00:45;95348.94;;;8.83;100.00
17309;BME280;8772;42.804;23.426;2022-10-24T02:03:19;95348.53;;;8.74;100.00
17309;BME280;8772;42.804;23.426;2022-10-24T02:05:51;95346.25;;;8.76;100.00
17309;BME280;8772;42.804;23.426;2022-10-24T02:08:25;95343.97;;;8.68;100.00
17309;BME280;8772;42.804;23.426;2022-10-24T02:10:56;95350.06;;;8.68;100.00
17309;BME280;8772;42.804;23.426;2022-10-24T02:13:26;95353.13;;;8.70;100.00
17309;BME280;8772;42.804;23.426;2022-10-24T02:15:58;95346.25;;;8.69;100.00
17309;BME280;8772;42.804;23.426;2022-10-24T02:18:26;95354.63;;;8.64;100.00
17309;BME280;8772;42.804;23.426;2022-10-24T02:20:58;95342.44;;;8.63;100.00
17309;BME280;8772;42.804;23.426;2022-10-24T02:23:35;95352.34;;;8.60;100.00
17309;BME280;8772;42.804;23.426;2022-10-24T02:26:06;95347.38;;;8.62;100.00
17309;BME280;8772;42.804;23.426;2022-10-24T02:28:39;95348.50;;;8.47;100.00
17309;BME280;8772;42.804;23.426;2022-10-24T02:31:16;95350.00;;;8.41;100.00
17309;BME280;8772;42.804;23.426;2022-10-24T02:33:47;95349.25;;;8.47;100.00
17309;BME280;8772;42.804;23.426;2022-10-24T02:36:17;95352.66;;;8.34;100.00
17309;BME280;8772;42.804;23.426;2022-10-24T02:38:46;95339.00;;;8.46;100.00
17309;BME280;8772;42.804;23.426;2022-10-24T02:41:18;95341.66;;;8.53;100.00
17309;BME280;8772;42.804;23.426;2022-10-24T02:43:48;95345.47;;;8.59;100.00
17309;BME280;8772;42.804;23.426;2022-10-24T02:46:18;95342.44;;;8.57;100.00
17309;BME280;8772;42.804;23.426;2022-10-24T02:48:49;95351.19;;;8.57;100.00
17309;BME280;8772;42.804;23.426;2022-10-24T02:51:19;95342.44;;;8.60;100.00
17309;BME280;8772;42.804;23.426;2022-10-24T02:53:50;95349.28;;;8.64;100.00
17309;BME280;8772;42.804;23.426;2022-10-24T02:56:17;95342.81;;;8.65;100.00
17309;BME280;8772;42.804;23.426;2022-10-24T02:58:43;95347.38;;;8.65;100.00
17309;BME280;8772;42.804;23.426;2022-10-24T03:01:10;95343.97;;;8.68;100.00
17309;BME280;8772;42.804;23.426;2022-10-24T03:03:39;95343.97;;;8.68;100.00
17309;BME280;8772;42.804;23.426;2022-10-24T03:06:06;95338.63;;;8.68;100.00
17309;BME280;8772;42.804;23.426;2022-10-24T03:08:33;95335.97;;;8.61;100.00
17309;BME280;8772;42.804;23.426;2022-10-24T03:11:00;95334.44;;;8.63;100.00
17309;BME280;8772;42.804;23.426;2022-10-24T03:13:26;95335.59;;;8.66;100.00
17309;BME280;8772;42.804;23.426;2022-10-24T03:15:53;95341.28;;;8.68;100.00
17309;BME280;8772;42.804;23.426;2022-10-24T03:18:20;95335.59;;;8.69;100.00
17309;BME280;8772;42.804;23.426;2022-10-24T03:20:48;95337.88;;;8.61;100.00
17309;BME280;8772;42.804;23.426;2022-10-24T03:23:15;95337.09;;;8.63;100.00
17309;BME280;8772;42.804;23.426;2022-10-24T03:25:43;95339.38;;;8.62;100.00
17309;BME280;8772;42.804;23.426;2022-10-24T03:28:10;95334.06;;;8.62;100.00
17309;BME280;8772;42.804;23.426;2022-10-24T03:30:37;95340.16;;;8.59;100.00
17309;BME280;8772;42.804;23.426;2022-10-24T03:33:04;95332.53;;;8.61;100.00
17309;BME280;8772;42.804;23.426;2022-10-24T03:35:31;95339.41;;;8.55;100.00
17309;BME280;8772;42.804;23.426;2022-10-24T03:37:59;95337.88;;;8.54;100.00
17309;BME280;8772;42.804;23.426;2022-10-24T03:40:26;95333.66;;;8.53;100.00
17309;BME280;8772;42.804;23.426;2022-10-24T03:42:53;95331.75;;;8.43;100.00
17309;BME280;8772;42.804;23.426;2022-10-24T03:45:20;95340.50;;;8.47;100.00
17309;BME280;8772;42.804;23.426;2022-10-24T03:47:47;95336.69;;;8.41;100.00
17309;BME280;8772;42.804;23.426;2022-10-24T03:50:14;95332.13;;;8.38;100.00
17309;BME280;8772;42.804;23.426;2022-10-24T03:52:41;95331.72;;;8.32;100.00
17309;BME280;8772;42.804;23.426;2022-10-24T03:55:10;95337.81;;;8.29;100.00
17309;BME280;8772;42.804;23.426;2022-10-24T03:57:37;95327.16;;;8.33;100.00
17309;BME280;8772;42.804;23.426;2022-10-24T04:00:05;95336.31;;;8.39;100.00
17309;BME280;8772;42.804;23.426;2022-10-24T04:02:32;95334.03;;;8.41;100.00
17309;BME280;8772;42.804;23.426;2022-10-24T04:04:59;95343.91;;;8.33;100.00
17309;BME280;8772;42.804;23.426;2022-10-24T04:07:26;95330.22;;;8.35;100.00
17309;BME280;8772;42.804;23.426;2022-10-24T04:09:53;95336.31;;;8.39;100.00
17309;BME280;8772;42.804;23.426;2022-10-24T04:12:21;95335.56;;;8.42;100.00
17309;BME280;8772;42.804;23.426;2022-10-24T04:14:48;95331.72;;;8.32;100.00
17309;BME280;8772;42.804;23.426;2022-10-24T04:17:15;95326.78;;;8.31;100.00
17309;BME280;8772;42.804;23.426;2022-10-24T04:19:43;95326.41;;;8.29;100.00
17309;BME280;8772;42.804;23.426;2022-10-24T04:22:09;95339.34;;;8.30;100.00
17309;BME280;8772;42.804;23.426;2022-10-24T04:24:36;95326.41;;;8.36;100.00
17309;BME280;8772;42.804;23.426;2022-10-24T04:27:04;95327.16;;;8.33;100.00
17309;BME280;8772;42.804;23.426;2022-10-24T04:29:32;95335.53;;;8.28;100.00
17309;BME280;8772;42.804;23.426;2022-10-24T04:31:59;95331.75;;;8.29;100.00
17309;BME280;8772;42.804;23.426;2022-10-24T04:34:26;95327.94;;;8.30;100.00
17309;BME280;8772;42.804;23.426;2022-10-24T04:36:53;95342.41;;;8.29;100.00
17309;BME280;8772;42.804;23.426;2022-10-24T04:39:20;95340.84;;;8.28;100.00
17309;BME280;8772;42.804;23.426;2022-10-24T04:41:47;95346.19;;;8.28;100.00
17309;BME280;8772;42.804;23.426;2022-10-24T04:44:13;95346.19;;;8.24;100.00
17309;BME280;8772;42.804;23.426;2022-10-24T04:46:42;95351.50;;;8.24;100.00
17309;BME280;8772;42.804;23.426;2022-10-24T04:49:09;95357.22;;;8.23;100.00
17309;BME280;8772;42.804;23.426;2022-10-24T04:51:36;95349.16;;;8.16;100.00
17309;BME280;8772;42.804;23.426;2022-10-24T04:54:03;95354.88;;;8.14;100.00
17309;BME280;8772;42.804;23.426;2022-10-24T04:56:31;95357.53;;;8.11;100.00
17309;BME280;8772;42.804;23.426;2022-10-24T04:58:58;95357.53;;;8.14;100.00
17309;BME280;8772;42.804;23.426;2022-10-24T05:01:25;95362.09;;;8.17;100.00
17309;BME280;8772;42.804;23.426;2022-10-24T05:03:54;95355.66;;;8.18;100.00
17309;BME280;8772;42.804;23.426;2022-10-24T05:06:21;95356.03;;;8.17;100.00
17309;BME280;8772;42.804;23.426;2022-10-24T05:08:48;95359.50;;;8.21;100.00
17309;BME280;8772;42.804;23.426;2022-10-24T05:11:15;95355.69;;;8.22;100.00
17309;BME280;8772;42.804;23.426;2022-10-24T05:13:42;95352.25;;;8.21;100.00
17309;BME280;8772;42.804;23.426;2022-10-24T05:16:09;95354.53;;;8.23;100.00
17309;BME280;8772;42.804;23.426;2022-10-24T05:18:36;95357.59;;;8.25;100.00
17309;BME280;8772;42.804;23.426;2022-10-24T05:21:04;95353.41;;;8.27;100.00
17309;BME280;8772;42.804;23.426;2022-10-24T05:23:31;95355.31;;;8.30;100.00
17309;BME280;8772;42.804;23.426;2022-10-24T05:25:58;95356.09;;;8.31;100.00
17309;BME280;8772;42.804;23.426;2022-10-24T05:28:25;95362.19;;;8.35;100.00
17309;BME280;8772;42.804;23.426;2022-10-24T05:30:52;95361.81;;;8.36;100.00
17309;BME280;8772;42.804;23.426;2022-10-24T05:33:19;95364.47;;;8.40;100.00
17309;BME280;8772;42.804;23.426;2022-10-24T05:35:47;95373.63;;;8.46;100.00
17309;BME280;8772;42.804;23.426;2022-10-24T05:38:16;95371.34;;;8.48;100.00
17309;BME280;8772;42.804;23.426;2022-10-24T05:40:43;95375.56;;;8.52;100.00
17309;BME280;8772;42.804;23.426;2022-10-24T05:43:12;95371.38;;;8.58;100.00
17309;BME280;8772;42.804;23.426;2022-10-24T05:45:39;95370.59;;;8.64;100.00
17309;BME280;8772;42.804;23.426;2022-10-24T05:48:06;95366.03;;;8.72;100.00
17309;BME280;8772;42.804;23.426;2022-10-24T05:50:33;95373.69;;;8.77;100.00
17309;BME280;8772;42.804;23.426;2022-10-24T05:53:00;95366.84;;;8.79;100.00
17309;BME280;8772;42.804;23.426;2022-10-24T05:55:28;95369.50;;;8.86;100.00
17309;BME280;8772;42.804;23.426;2022-10-24T05:57:56;95376.72;;;8.93;100.00
17309;BME280;8772;42.804;23.426;2022-10-24T06:00:23;95372.53;;;9.02;100.00
17309;BME280;8772;42.804;23.426;2022-10-24T06:02:50;95382.06;;;9.10;100.00
17309;BME280;8772;42.804;23.426;2022-10-24T06:05:17;95380.94;;;9.18;100.00
17309;BME280;8772;42.804;23.426;2022-10-24T06:07:44;95382.84;;;9.21;100.00
17309;BME280;8772;42.804;23.426;2022-10-24T06:10:11;95380.56;;;9.30;100.00
17309;BME280;8772;42.804;23.426;2022-10-24T06:12:40;95387.00;;;9.43;100.00
17309;BME280;8772;42.804;23.426;2022-10-24T06:15:13;95373.63;;;9.50;100.00
17309;BME280;8772;42.804;23.426;2022-10-24T06:17:39;95375.16;;;9.58;100.00
17309;BME280;8772;42.804;23.426;2022-10-24T06:20:07;95378.94;;;9.64;100.00
17309;BME280;8772;42.804;23.426;2022-10-24T06:22:34;95383.50;;;9.74;100.00
17309;BME280;8772;42.804;23.426;2022-10-24T06:25:01;95390.38;;;9.82;100.00
17309;BME280;8772;42.804;23.426;2022-10-24T06:27:28;95382.72;;;9.91;100.00
17309;BME280;8772;42.804;23.426;2022-10-24T06:29:56;95393.72;;;10.00;100.00
17309;BME280;8772;42.804;23.426;2022-10-24T06:32:23;95392.97;;;10.10;100.00
17309;BME280;8772;42.804;23.426;2022-10-24T06:34:50;95405.53;;;10.20;100.00
17309;BME280;8772;42.804;23.426;2022-10-24T06:37:17;95407.03;;;10.28;100.00
17309;BME280;8772;42.804;23.426;2022-10-24T06:39:44;95402.38;;;10.39;100.00
17309;BME280;8772;42.804;23.426;2022-10-24T06:42:11;95412.28;;;10.46;100.00
17309;BME280;8772;42.804;23.426;2022-10-24T06:44:38;95410.72;;;10.55;100.00
17309;BME280;8772;42.804;23.426;2022-10-24T06:47:06;95403.78;;;10.61;100.00
17309;BME280;8772;42.804;23.426;2022-10-24T06:49:33;95409.13;;;10.68;100.00
17309;BME280;8772;42.804;23.426;2022-10-24T06:52:00;95411.34;;;10.77;100.00
17309;BME280;8772;42.804;23.426;2022-10-24T06:54:27;95412.50;;;10.79;100.00
17309;BME280;8772;42.804;23.426;2022-10-24T06:56:54;95418.16;;;10.88;100.00
17309;BME280;8772;42.804;23.426;2022-10-24T06:59:21;95414.31;;;10.92;100.00
17309;BME280;8772;42.804;23.426;2022-10-24T07:01:48;95416.53;;;11.01;100.00
17309;BME280;8772;42.804;23.426;2022-10-24T07:04:16;95413.44;;;11.09;100.00
17309;BME280;8772;42.804;23.426;2022-10-24T07:06:43;95414.91;;;11.14;100.00
17309;BME280;8772;42.804;23.426;2022-10-24T07:09:10;95415.59;;;11.25;100.00
17309;BME280;8772;42.804;23.426;2022-10-24T07:11:38;95412.47;;;11.33;100.00
17309;BME280;8772;42.804;23.426;2022-10-24T07:14:07;95410.88;;;11.43;100.00
17309;BME280;8772;42.804;23.426;2022-10-24T07:16:37;95417.66;;;11.51;100.00
17309;BME280;8772;42.804;23.426;2022-10-24T07:19:04;95411.13;;;11.59;100.00
17309;BME280;8772;42.804;23.426;2022-10-24T07:21:33;95412.19;;;11.68;100.00
17309;BME280;8772;42.804;23.426;2022-10-24T07:24:00;95411.72;;;11.77;100.00
17309;BME280;8772;42.804;23.426;2022-10-24T07:26:28;95418.09;;;11.90;100.00
17309;BME280;8772;42.804;23.426;2022-10-24T07:28:58;95414.97;;;11.98;100.00
17309;BME280;8772;42.804;23.426;2022-10-24T07:31:27;95426.34;;;12.09;100.00
17309;BME280;8772;42.804;23.426;2022-10-24T07:33:57;95430.75;;;12.23;100.00
17309;BME280;8772;42.804;23.426;2022-10-24T07:36:25;95419.16;;;12.33;100.00
17309;BME280;8772;42.804;23.426;2022-10-24T07:38:55;95421.66;;;12.47;100.00
17309;BME280;8772;42.804;23.426;2022-10-24T07:41:23;95431.50;;;12.57;100.00
17309;BME280;8772;42.804;23.426;2022-10-24T07:43:51;95431.66;;;12.73;100.00
17309;BME280;8772;42.804;23.426;2022-10-24T07:46:20;95429.63;;;12.84;100.00
17309;BME280;8772;42.804;23.426;2022-10-24T07:48:48;95433.81;;;12.85;100.00
17309;BME280;8772;42.804;23.426;2022-10-24T07:51:15;95426.66;;;13.05;100.00
17309;BME280;8772;42.804;23.426;2022-10-24T07:53:42;95418.69;;;13.24;100.00
17309;BME280;8772;42.804;23.426;2022-10-24T07:56:11;95421.69;;;13.29;100.00
17309;BME280;8772;42.804;23.426;2022-10-24T07:58:40;95419.13;;;13.45;100.00
17309;BME280;8772;42.804;23.426;2022-10-24T08:01:10;95419.56;;;13.63;100.00
17309;BME280;8772;42.804;23.426;2022-10-24T08:03:37;95405.69;;;13.68;100.00
17309;BME280;8772;42.804;23.426;2022-10-24T08:06:06;95405.31;;;13.89;100.00
17309;BME280;8772;42.804;23.426;2022-10-24T08:08:34;95405.41;;;14.05;100.00
17309;BME280;8772;42.804;23.426;2022-10-24T08:11:05;95398.69;;;14.13;100.00
17309;BME280;8772;42.804;23.426;2022-10-24T08:13:33;95395.97;;;14.36;100.00
17309;BME280;8772;42.804;23.426;2022-10-24T08:16:00;95395.34;;;14.48;100.00
17309;BME280;8772;42.804;23.426;2022-10-24T08:18:27;95393.72;;;14.70;100.00
17309;BME280;8772;42.804;23.426;2022-10-24T08:20:58;95390.66;;;14.88;100.00
17309;BME280;8772;42.804;23.426;2022-10-24T08:23:25;95405.44;;;15.15;100.00
17309;BME280;8772;42.804;23.426;2022-10-24T08:25:52;95401.38;;;15.23;100.00
17309;BME280;8772;42.804;23.426;2022-10-24T08:28:19;95402.00;;;15.47;100.00
17309;BME280;8772;42.804;23.426;2022-10-24T08:30:55;95392.31;;;15.65;100.00
17309;BME280;8772;42.804;23.426;2022-10-24T08:33:22;95390.06;;;15.76;100.00
17309;BME280;8772;42.804;23.426;2022-10-24T08:35:49;95385.75;;;15.94;100.00
17309;BME280;8772;42.804;23.426;2022-10-24T08:38:16;95394.78;;;16.16;100.00
17309;BME280;8772;42.804;23.426;2022-10-24T08:40:45;95387.13;;;16.43;100.00
17309;BME280;8772;42.804;23.426;2022-10-24T08:43:13;95383.28;;;16.69;100.00
17309;BME280;8772;42.804;23.426;2022-10-24T08:45:45;95392.50;;;16.97;100.00
17309;BME280;8772;42.804;23.426;2022-10-24T08:48:19;95385.56;;;17.21;100.00
17309;BME280;8772;42.804;23.426;2022-10-24T08:50:52;95387.19;;;17.43;100.00
17309;BME280;8772;42.804;23.426;2022-10-24T08:53:24;95376.47;;;17.65;100.00
17309;BME280;8772;42.804;23.426;2022-10-24T08:55:54;95371.63;;;17.81;100.00
17309;BME280;8772;42.804;23.426;2022-10-24T08:58:24;95374.34;;;17.81;90.76
17309;BME280;8772;42.804;23.426;2022-10-24T09:00:54;95365.06;;;18.03;100.00
17309;BME280;8772;42.804;23.426;2022-10-24T09:03:27;95373.94;;;18.38;92.58
17309;BME280;8772;42.804;23.426;2022-10-24T09:06:00;95366.09;;;18.61;94.07
17309;BME280;8772;42.804;23.426;2022-10-24T09:08:33;95365.59;;;18.75;87.42
17309;BME280;8772;42.804;23.426;2022-10-24T09:11:02;95365.91;;;18.86;88.16
17309;BME280;8772;42.804;23.426;2022-10-24T09:13:31;95360.94;;;19.15;91.08
17309;BME280;8772;42.804;23.426;2022-10-24T09:15:59;95356.47;;;19.30;87.13
17309;BME280;8772;42.804;23.426;2022-10-24T09:18:32;95346.88;;;19.56;83.76
17309;BME280;8772;42.804;23.426;2022-10-24T09:21:01;95351.13;;;19.84;84.54
17309;BME280;8772;42.804;23.426;2022-10-24T09:23:31;95352.53;;;20.07;81.42
17309;BME280;8772;42.804;23.426;2022-10-24T09:25:59;95347.53;;;20.23;76.92
17309;BME280;8772;42.804;23.426;2022-10-24T09:28:28;95334.41;;;20.30;74.21
17309;BME280;8772;42.804;23.426;2022-10-24T09:30:56;95338.31;;;20.47;73.78
17309;BME280;8772;42.804;23.426;2022-10-24T09:33:28;95339.31;;;20.68;74.73
17309;BME280;8772;42.804;23.426;2022-10-24T09:35:59;95344.09;;;20.82;72.59
17309;BME280;8772;42.804;23.426;2022-10-24T09:38:31;95339.81;;;20.99;68.48
17309;BME280;8772;42.804;23.426;2022-10-24T09:41:01;95342.78;;;21.19;70.29
17309;BME280;8772;42.804;23.426;2022-10-24T09:43:37;95339.22;;;21.36;67.89
17309;BME280;8772;42.804;23.426;2022-10-24T09:46:07;95334.47;;;21.46;64.43
17309;BME280;8772;42.804;23.426;2022-10-24T09:48:54;95341.38;;;21.56;67.18
17309;BME280;8772;42.804;23.426;2022-10-24T09:51:30;95332.03;;;21.48;61.92
17309;BME280;8772;42.804;23.426;2022-10-24T09:54:24;95327.06;;;21.46;61.55
17309;BME280;8772;42.804;23.426;2022-10-24T09:56:55;95324.06;;;21.68;63.20
17309;BME280;8772;42.804;23.426;2022-10-24T09:59:30;95323.38;;;21.82;62.17
17309;BME280;8772;42.804;23.426;2022-10-24T10:02:19;95318.41;;;21.95;60.61
17309;BME280;8772;42.804;23.426;2022-10-24T10:05:16;95321.91;;;22.10;58.85
17309;BME280;8772;42.804;23.426;2022-10-24T10:07:45;95316.75;;;22.12;57.31
17309;BME280;8772;42.804;23.426;2022-10-24T10:10:33;95315.56;;;22.13;60.52
17309;BME280;8772;42.804;23.426;2022-10-24T10:13:06;95310.50;;;22.20;58.92
17309;BME280;8772;42.804;23.426;2022-10-24T10:15:45;95310.50;;;22.35;58.13
17309;BME280;8772;42.804;23.426;2022-10-24T10:18:22;95307.44;;;22.42;59.64
17309;BME280;8772;42.804;23.426;2022-10-24T10:21:02;95300.94;;;22.53;57.71
17309;BME280;8772;42.804;23.426;2022-10-24T10:23:33;95298.31;;;22.59;55.71
17309;BME280;8772;42.804;23.426;2022-10-24T10:26:03;95306.75;;;22.47;54.19
17309;BME280;8772;42.804;23.426;2022-10-24T10:28:33;95303.41;;;22.52;55.59
17309;BME280;8772;42.804;23.426;2022-10-24T10:31:01;95293.41;;;22.48;56.67
17309;BME280;8772;42.804;23.426;2022-10-24T10:33:35;95289.66;;;22.60;55.57
17309;BME280;8772;42.804;23.426;2022-10-24T10:36:11;95284.19;;;22.60;55.62
17309;BME280;8772;42.804;23.426;2022-10-24T10:38:45;95283.63;;;22.56;55.93
17309;BME280;8772;42.804;23.426;2022-10-24T10:41:22;95277.44;;;22.56;57.29
17309;BME280;8772;42.804;23.426;2022-10-24T10:44:00;95271.41;;;22.66;56.38
17309;BME280;8772;42.804;23.426;2022-10-24T10:46:36;95268.59;;;22.61;55.28
17309;BME280;8772;42.804;23.426;2022-10-24T10:49:11;95265.28;;;22.71;56.56
17309;BME280;8772;42.804;23.426;2022-10-24T10:51:43;95272.38;;;22.63;53.97
17309;BME280;8772;42.804;23.426;2022-10-24T10:54:38;95256.56;;;22.67;54.67
17309;BME280;8772;42.804;23.426;2022-10-24T10:57:11;95248.78;;;22.95;54.54
17309;BME280;8772;42.804;23.426;2022-10-24T10:59:43;95251.88;;;23.02;55.37
17309;BME280;8772;42.804;23.426;2022-10-24T11:02:26;95249.31;;;23.13;54.57
17309;BME280;8772;42.804;23.426;2022-10-24T11:05:13;95243.28;;;23.09;54.95
17309;BME280;8772;42.804;23.426;2022-10-24T11:07:49;95239.03;;;23.23;51.81
17309;BME280;8772;42.804;23.426;2022-10-24T11:10:23;95235.22;;;23.35;53.20
17309;BME280;8772;42.804;23.426;2022-10-24T11:12:53;95237.19;;;23.54;52.15
17309;BME280;8772;42.804;23.426;2022-10-24T11:15:24;95224.63;;;23.62;49.91
17309;BME280;8772;42.804;23.426;2022-10-24T11:17:55;95224.47;;;23.71;51.42
17309;BME280;8772;42.804;23.426;2022-10-24T11:20:28;95225.97;;;23.92;52.08
17309;BME280;8772;42.804;23.426;2022-10-24T11:23:02;95231.41;;;24.12;50.88
17309;BME280;8772;42.804;23.426;2022-10-24T11:25:35;95225.00;;;24.21;50.45
17309;BME280;8772;42.804;23.426;2022-10-24T11:28:07;95222.13;;;24.35;49.86
17309;BME280;8772;42.804;23.426;2022-10-24T11:30:42;95213.72;;;24.64;50.24
17309;BME280;8772;42.804;23.426;2022-10-24T11:33:16;95220.22;;;24.72;48.51
17309;BME280;8772;42.804;23.426;2022-10-24T11:35:58;95210.06;;;24.78;49.95
17309;BME280;8772;42.804;23.426;2022-10-24T11:38:29;95206.16;;;24.90;47.65
17309;BME280;8772;42.804;23.426;2022-10-24T11:41:12;95198.28;;;25.03;47.22
17309;BME280;8772;42.804;23.426;2022-10-24T11:43:43;95197.34;;;25.17;46.83
17309;BME280;8772;42.804;23.426;2022-10-24T11:46:14;95196.19;;;25.29;46.47
17309;BME280;8772;42.804;23.426;2022-10-24T11:48:47;95198.50;;;25.47;46.13
17309;BME280;8772;42.804;23.426;2022-10-24T11:51:20;95191.56;;;25.57;46.45
17309;BME280;8772;42.804;23.426;2022-10-24T11:53:54;95184.16;;;25.74;46.82
17309;BME280;8772;42.804;23.426;2022-10-24T11:56:26;95183.25;;;25.93;46.35
17309;BME280;8772;42.804;23.426;2022-10-24T11:58:58;95178.50;;;25.99;42.95
17309;BME280;8772;42.804;23.426;2022-10-24T12:01:39;95176.25;;;26.03;43.54
17309;BME280;8772;42.804;23.426;2022-10-24T12:04:34;95177.03;;;26.09;42.69
17309;BME280;8772;42.804;23.426;2022-10-24T12:07:23;95174.03;;;26.13;42.97
17309;BME280;8772;42.804;23.426;2022-10-24T12:10:18;95164.56;;;26.14;43.96
17309;BME280;8772;42.804;23.426;2022-10-24T12:13:04;95164.56;;;26.25;44.38
17309;BME280;8772;42.804;23.426;2022-10-24T12:15:42;95163.81;;;26.41;44.01
17309;BME280;8772;42.804;23.426;2022-10-24T12:18:26;95162.59;;;26.53;43.79
17309;BME280;8772;42.804;23.426;2022-10-24T12:20:59;95162.34;;;26.51;41.65
17309;BME280;8772;42.804;23.426;2022-10-24T12:23:30;95154.81;;;26.46;41.55
17309;BME280;8772;42.804;23.426;2022-10-24T12:26:13;95152.63;;;26.50;42.85
17309;BME280;8772;42.804;23.426;2022-10-24T12:28:52;95147.88;;;26.56;42.73
17309;BME280;8772;42.804;23.426;2022-10-24T12:31:20;95141.13;;;26.62;42.19
17309;BME280;8772;42.804;23.426;2022-10-24T12:37:04;95134.91;;;26.62;39.60
17309;BME280;8772;42.804;23.426;2022-10-24T12:39:36;95138.13;;;26.22;41.59
17309;BME280;8772;42.804;23.426;2022-10-24T12:42:12;95142.88;;;26.43;41.15
17309;BME280;8772;42.804;23.426;2022-10-24T12:44:43;95137.66;;;26.51;40.60
17309;BME280;8772;42.804;23.426;2022-10-24T12:47:29;95132.63;;;26.66;41.58
17309;BME280;8772;42.804;23.426;2022-10-24T12:49:58;95123.41;;;26.69;42.56
17309;BME280;8772;42.804;23.426;2022-10-24T12:53:00;95124.88;;;26.75;39.32
17309;BME280;8772;42.804;23.426;2022-10-24T12:55:30;95122.94;;;26.54;41.24
17309;BME280;8772;42.804;23.426;2022-10-24T12:58:23;95124.16;;;26.75;42.15
17309;BME280;8772;42.804;23.426;2022-10-24T13:00:55;95119.59;;;26.94;41.44
17309;BME280;8772;42.804;23.426;2022-10-24T13:03:46;95124.34;;;26.93;41.53
17309;BME280;8772;42.804;23.426;2022-10-24T13:06:22;95119.06;;;27.01;41.53
17309;BME280;8772;42.804;23.426;2022-10-24T13:09:07;95108.31;;;27.08;41.69
17309;BME280;8772;42.804;23.426;2022-10-24T13:11:50;95113.56;;;27.12;41.53
17309;BME280;8772;42.804;23.426;2022-10-24T13:14:40;95113.81;;;27.03;41.09
17309;BME280;8772;42.804;23.426;2022-10-24T13:17:15;95110.81;;;27.06;40.66
17309;BME280;8772;42.804;23.426;2022-10-24T13:19:45;95108.81;;;27.01;40.87
17309;BME280;8772;42.804;23.426;2022-10-24T13:22:27;95104.56;;;27.06;40.13
17309;BME280;8772;42.804;23.426;2022-10-24T13:24:55;95104.56;;;27.06;39.14
17309;BME280;8772;42.804;23.426;2022-10-24T13:27:30;95104.81;;;27.08;40.71